Time;durP1;ratioP1;P1;durP2;ratioP2;P2;SDS_P1;SDS_P2;PMS_P1;PMS_P2;Temp;Humidity;BMP_temperature;BMP_pressure;BME280_temperature;BME280_humidity;BME280_pressure;Samples;Min_cycle;Max_cycle;Signal;HPM_P1;HPM_P2
2021/05/06 00:33:33;;;;;;;12.80;3.67;;;4.70;99.90;;;;;;5111558;28;20048;-68
2021/05/06 00:35:59;;;;;;;17.13;4.05;;;4.70;99.90;;;;;;5111455;28;20378;-66
2021/05/06 00:38:28;;;;;;;14.50;3.50;;;4.70;99.90;;;;;;5111537;28;20048;-68
2021/05/06 00:54:28;;;;;;;9.07;3.20;;;4.80;99.90;;;;;;5111061;28;20043;-68
2021/05/06 01:05:29;;;;;;;14.48;4.15;;;4.60;99.90;;;;;;5111672;28;20050;-65
2021/05/06 01:08:07;;;;;;;14.45;3.80;;;4.60;99.90;;;;;;5111107;28;20082;-68
2021/05/06 01:13:02;;;;;;;12.25;3.75;;;4.50;99.90;;;;;;5110824;28;20059;-68
2021/05/06 01:15:28;;;;;;;13.63;4.23;;;4.50;99.90;;;;;;5110799;28;20513;-68
2021/05/06 01:17:56;;;;;;;11.77;3.90;;;4.40;99.90;;;;;;5110872;28;20067;-68
2021/05/06 01:20:23;;;;;;;14.85;4.03;;;4.40;99.90;;;;;;5110320;28;20448;-68
2021/05/06 01:22:48;;;;;;;12.10;4.13;;;4.40;99.90;;;;;;5092216;28;20074;-66
2021/05/06 01:25:15;;;;;;;9.68;3.35;;;4.30;99.90;;;;;;5110632;28;20043;-68
2021/05/06 01:27:58;;;;;;;11.55;3.83;;;4.30;99.90;;;;;;5111525;28;20100;-66
2021/05/06 01:30:34;;;;;;;11.70;4.40;;;4.20;99.90;;;;;;5111617;28;20045;-68
2021/05/06 01:33:14;;;;;;;12.20;4.65;;;4.10;99.90;;;;;;5111549;28;20093;-67
2021/05/06 01:38:32;;;;;;;10.33;4.10;;;3.90;99.90;;;;;;5111695;28;20143;-67
2021/05/06 01:41:26;;;;;;;9.75;4.10;;;3.90;99.90;;;;;;5111005;28;20043;-65
2021/05/06 02:00:18;;;;;;;;;;;3.70;99.90;;;;;;5086521;28;20059;-69
2021/05/06 02:02:45;;;;;;;7.18;3.45;;;3.70;99.90;;;;;;5110642;28;19920;-66
2021/05/06 02:05:11;;;;;;;8.65;3.70;;;3.70;99.90;;;;;;5110287;28;20079;-68
2021/05/06 02:07:39;;;;;;;7.03;3.80;;;3.70;99.90;;;;;;5091632;28;20058;-66
2021/05/06 02:10:07;;;;;;;6.63;3.63;;;3.80;99.90;;;;;;5110070;28;20035;-68
2021/05/06 02:12:33;;;;;;;7.22;3.65;;;3.90;99.90;;;;;;5110088;28;20490;-67
2021/05/06 02:15:05;;;;;;;6.47;3.63;;;3.90;99.90;;;;;;5092055;28;20090;-68
2021/05/06 02:17:31;;;;;;;6.47;3.33;;;4.00;99.90;;;;;;5110158;28;20128;-68
2021/05/06 02:19:56;;;;;;;5.37;3.33;;;4.00;99.90;;;;;;5110136;28;20098;-68
2021/05/06 02:22:22;;;;;;;5.93;3.33;;;4.00;99.90;;;;;;5110408;28;20039;-67
2021/05/06 02:24:48;;;;;;;7.82;3.13;;;3.90;99.90;;;;;;5109791;28;20048;-68
2021/05/06 02:27:14;;;;;;;6.80;3.00;;;3.90;99.90;;;;;;5110252;28;20055;-66
2021/05/06 02:29:40;;;;;;;4.93;3.60;;;3.90;99.90;;;;;;5110027;28;20407;-68
2021/05/06 02:32:07;;;;;;;6.60;3.70;;;3.80;99.90;;;;;;5110381;28;20040;-68
2021/05/06 02:34:33;;;;;;;7.30;3.65;;;3.80;99.90;;;;;;5109472;28;20490;-67
2021/05/06 02:36:59;;;;;;;8.63;3.88;;;3.70;99.90;;;;;;5110556;28;20071;-68
2021/05/06 02:39:25;;;;;;;7.47;3.65;;;3.60;99.90;;;;;;5110216;28;20427;-66
2021/05/06 02:41:51;;;;;;;4.30;3.40;;;3.50;99.90;;;;;;5109706;28;20067;-66
2021/05/06 02:44:16;;;;;;;8.77;3.90;;;3.50;99.90;;;;;;5110128;28;20044;-68
2021/05/06 02:46:42;;;;;;;5.43;3.70;;;3.40;99.90;;;;;;5109641;28;20079;-66
2021/05/06 02:49:08;;;;;;;6.60;3.57;;;3.30;99.90;;;;;;5110065;28;20054;-68
2021/05/06 02:51:38;;;;;;;5.07;3.87;;;3.30;99.90;;;;;;5109712;28;20071;-66
2021/05/06 02:54:04;;;;;;;6.50;3.80;;;3.20;99.90;;;;;;5110117;28;20384;-68
2021/05/06 02:59:18;;;;;;;5.38;3.90;;;3.10;99.90;;;;;;5114002;28;20221;-67
2021/05/06 03:04:28;;;;;;;5.82;4.43;;;2.90;99.90;;;;;;5114171;28;20078;-68
2021/05/06 03:06:58;;;;;;;6.43;4.20;;;2.80;99.90;;;;;;5113845;28;20435;-68
2021/05/06 03:23:07;;;;;;;5.72;4.90;;;2.60;99.90;;;;;;5113664;28;20070;-67
2021/05/06 03:25:33;;;;;;;6.87;4.97;;;2.50;99.90;;;;;;5112927;28;20043;-65
2021/05/06 03:28:12;;;;;;;8.73;5.43;;;2.50;99.90;;;;;;5113165;28;20167;-66
2021/05/06 03:31:03;;;;;;;7.07;4.85;;;2.50;99.90;;;;;;5113363;28;20046;-68
2021/05/06 03:41:43;;;;;;;8.30;5.18;;;2.40;99.90;;;;;;5112640;28;20055;-65
2021/05/06 04:16:45;;;;;;;12.00;6.73;;;2.20;99.90;;;;;;5121146;28;20204;-65
2021/05/06 04:27:22;;;;;;;12.65;7.00;;;2.30;99.90;;;;;;5113947;28;20120;-65
2021/05/06 04:37:47;;;;;;;10.30;6.80;;;2.80;99.90;;;;;;5112341;28;20270;-68
2021/05/06 04:40:37;;;;;;;10.63;7.85;;;2.90;99.90;;;;;;5112214;28;20059;-67
2021/05/06 05:04:32;;;;;;;5.78;4.32;;;4.10;99.90;;;;;;5111308;28;20052;-65
2021/05/06 05:17:49;;;;;;;4.88;3.63;;;4.00;99.90;;;;;;5111658;28;20043;-64
2021/05/06 05:20:19;;;;;;;7.13;4.00;;;3.90;99.90;;;;;;5111328;28;20063;-66
2021/05/06 05:25:36;;;;;;;6.00;4.50;;;4.00;99.90;;;;;;5114577;28;20424;-67
2021/05/06 05:28:05;;;;;;;12.95;6.25;;;4.00;99.90;;;;;;5112126;28;20042;-66
2021/05/06 05:30:32;;;;;;;8.55;5.03;;;4.20;99.90;;;;;;5111433;28;20047;-66
2021/05/06 05:32:58;;;;;;;6.28;4.72;;;4.30;99.90;;;;;;5112399;28;20047;-64
2021/05/06 05:38:08;;;;;;;6.90;4.78;;;4.80;99.90;;;;;;5110102;28;20044;-64
2021/05/06 05:40:40;;;;;;;5.93;5.18;;;5.10;99.90;;;;;;5110358;28;20050;-64
2021/05/06 05:56:35;;;;;;;5.20;3.45;;;6.40;99.90;;;;;;5111389;28;20044;-65
2021/05/06 05:59:06;;;;;;;5.47;3.77;;;6.60;99.90;;;;;;5109856;28;20063;-65
2021/05/06 06:01:32;;;;;;;5.80;3.37;;;6.60;99.90;;;;;;5112325;28;20712;-65
2021/05/06 06:03:58;;;;;;;4.07;3.23;;;6.70;99.90;;;;;;5115830;28;20792;-65
2021/05/06 06:06:25;;;;;;;4.43;3.57;;;6.80;99.90;;;;;;5114562;28;20305;-66
2021/05/06 06:08:50;;;;;;;5.50;3.40;;;7.00;99.90;;;;;;5116038;28;20120;-66
2021/05/06 06:11:17;;;;;;;4.87;3.70;;;7.00;99.90;;;;;;5121859;28;20265;-65
2021/05/06 06:13:46;;;;;;;5.20;3.90;;;7.10;99.90;;;;;;5127234;28;20321;-65
2021/05/06 06:16:20;;;;;;;5.50;3.63;;;7.00;99.90;;;;;;5128431;28;20697;-65
2021/05/06 06:18:49;;;;;;;3.70;3.35;;;6.70;99.90;;;;;;5127013;28;20297;-64
2021/05/06 06:21:28;;;;;;;3.93;3.23;;;6.90;99.90;;;;;;5125645;28;20099;-65
2021/05/06 06:23:54;;;;;;;7.07;4.20;;;7.00;99.90;;;;;;5124029;28;20373;-65
2021/05/06 06:26:21;;;;;;;3.73;3.40;;;7.00;99.90;;;;;;5121626;28;20308;-64
2021/05/06 06:28:49;;;;;;;4.97;3.43;;;7.00;99.90;;;;;;5119911;28;20827;-66
2021/05/06 06:33:59;;;;;;;3.80;3.50;;;7.20;99.90;;;;;;5125799;28;20308;-63
2021/05/06 06:36:27;;;;;;;5.73;3.60;;;7.00;99.90;;;;;;5121634;28;20042;-65
2021/05/06 06:38:55;;;;;;;4.17;3.50;;;7.00;99.90;;;;;;5124073;28;20348;-62
2021/05/06 06:41:21;;;;;;;6.60;3.73;;;7.00;99.90;;;;;;5132997;28;20095;-64
2021/05/06 06:43:50;;;;;;;7.23;3.93;;;7.00;99.90;;;;;;5114173;28;20301;-66
2021/05/06 06:46:16;;;;;;;5.68;3.85;;;7.10;99.90;;;;;;5135954;28;20055;-63
2021/05/06 06:48:44;;;;;;;5.83;3.83;;;7.20;99.90;;;;;;5130590;28;20048;-63
2021/05/06 06:51:09;;;;;;;4.82;4.10;;;7.20;99.90;;;;;;5128517;28;20336;-67
2021/05/06 06:53:35;;;;;;;6.43;4.37;;;7.30;99.90;;;;;;5124232;28;20047;-63
2021/05/06 06:56:01;;;;;;;5.33;3.97;;;7.30;99.90;;;;;;5123364;28;20039;-63
2021/05/06 06:58:27;;;;;;;5.13;4.30;;;7.30;99.90;;;;;;5125398;28;20091;-65
2021/05/06 07:00:52;;;;;;;5.20;4.40;;;7.40;99.90;;;;;;5129169;28;20052;-64
2021/05/06 07:03:18;;;;;;;6.97;4.63;;;7.40;99.90;;;;;;5130936;28;20070;-65
2021/05/06 07:05:44;;;;;;;5.57;4.80;;;7.30;99.90;;;;;;5136281;27;20043;-65
2021/05/06 07:08:26;;;;;;;5.57;5.07;;;7.60;99.90;;;;;;5122918;28;20079;-64
2021/05/06 07:10:54;;;;;;;7.15;6.00;;;7.30;99.90;;;;;;5120985;28;20044;-64
2021/05/06 07:13:20;;;;;;;9.73;6.40;;;7.30;99.90;;;;;;5122532;28;20077;-65
2021/05/06 07:15:51;;;;;;;10.60;7.00;;;7.40;99.90;;;;;;5122262;28;20059;-63
2021/05/06 07:18:18;;;;;;;14.25;7.15;;;7.50;99.90;;;;;;5121539;28;20048;-63
2021/05/06 07:20:45;;;;;;;12.40;7.22;;;7.70;99.90;;;;;;5113840;28;20054;-65
2021/05/06 07:23:17;;;;;;;8.15;7.03;;;7.70;99.90;;;;;;5117620;28;20044;-64
2021/05/06 07:25:43;;;;;;;9.88;7.60;;;7.70;99.90;;;;;;5094685;28;20070;-64
2021/05/06 07:28:15;;;;;;;11.03;7.67;;;7.70;99.90;;;;;;5094200;28;20052;-64
2021/05/06 07:30:42;;;;;;;9.70;8.43;;;7.70;99.90;;;;;;5093675;28;20337;-66
2021/05/06 07:33:12;;;;;;;12.45;9.02;;;7.70;99.90;;;;;;5109447;28;20297;-66
2021/05/06 07:35:38;;;;;;;10.90;9.20;;;7.80;99.90;;;;;;5114498;28;20047;-65
2021/05/06 07:38:05;;;;;;;10.63;9.53;;;7.80;99.90;;;;;;5113502;28;20047;-66
2021/05/06 07:40:32;;;;;;;11.27;9.77;;;7.90;99.90;;;;;;5114728;28;20787;-64
2021/05/06 07:42:58;;;;;;;11.43;9.77;;;7.90;99.90;;;;;;5111192;28;20784;-66
2021/05/06 07:45:24;;;;;;;12.17;10.20;;;7.90;99.90;;;;;;5112018;28;20328;-66
2021/05/06 07:47:50;;;;;;;13.33;11.53;;;8.10;99.90;;;;;;5111893;28;20092;-64
2021/05/06 07:50:18;;;;;;;12.07;9.80;;;8.30;99.90;;;;;;5112359;28;20066;-66
2021/05/06 07:52:45;;;;;;;9.40;8.40;;;8.60;99.90;;;;;;5111245;28;20398;-64
2021/05/06 07:55:12;;;;;;;10.67;8.50;;;8.60;99.90;;;;;;5110980;28;20308;-64
2021/05/06 07:57:38;;;;;;;12.57;9.33;;;8.50;99.90;;;;;;5111463;28;20324;-65
2021/05/06 08:00:11;;;;;;;11.20;9.17;;;8.50;99.90;;;;;;5111727;28;20289;-66
2021/05/06 08:02:37;;;;;;;12.03;9.30;;;8.80;99.90;;;;;;5111608;28;20309;-66
2021/05/06 08:05:03;;;;;;;11.57;9.57;;;9.00;99.90;;;;;;5111700;28;20357;-66
2021/05/06 08:07:29;;;;;;;5.03;4.40;;;9.00;99.90;;;;;;5093135;28;20067;-65
2021/05/06 08:09:55;;;;;;;4.57;3.77;;;9.00;99.90;;;;;;5111455;28;20391;-66
2021/05/06 08:12:23;;;;;;;4.33;2.90;;;9.00;99.90;;;;;;5111401;28;20048;-67
2021/05/06 08:14:49;;;;;;;3.60;2.60;;;8.80;99.90;;;;;;5092708;28;20097;-66
2021/05/06 08:17:15;;;;;;;4.10;2.70;;;8.60;99.90;;;;;;5111381;28;20411;-66
2021/05/06 08:19:43;;;;;;;2.43;2.23;;;8.60;99.90;;;;;;5111019;28;20436;-65
2021/05/06 08:22:08;;;;;;;4.53;2.90;;;8.60;99.90;;;;;;5111101;28;21096;-66
2021/05/06 08:24:35;;;;;;;4.23;2.80;;;8.70;99.90;;;;;;5110758;28;20376;-65
2021/05/06 08:27:01;;;;;;;6.40;3.30;;;8.90;99.90;;;;;;5111170;28;20071;-66
2021/05/06 08:29:26;;;;;;;4.47;4.07;;;9.10;99.90;;;;;;5111171;28;20359;-66
2021/05/06 08:31:54;;;;;;;6.73;4.80;;;9.20;99.90;;;;;;5110092;28;20474;-63
2021/05/06 08:34:19;;;;;;;6.10;5.40;;;9.40;99.90;;;;;;5110010;28;20039;-63
2021/05/06 08:36:45;;;;;;;7.50;5.20;;;9.30;99.90;;;;;;5110435;28;20402;-63
2021/05/06 08:39:12;;;;;;;6.53;5.30;;;9.20;99.90;;;;;;5110852;28;20752;-63
2021/05/06 08:41:39;;;;;;;8.73;7.00;;;9.20;99.90;;;;;;5110695;28;20424;-63
2021/05/06 08:44:06;;;;;;;9.87;7.50;;;9.10;99.90;;;;;;5111737;28;20077;-61
2021/05/06 08:46:36;;;;;;;9.67;8.60;;;9.20;99.90;;;;;;5111197;28;20856;-59
2021/05/06 08:49:07;;;;;;;7.53;5.93;;;9.50;99.90;;;;;;5110481;28;20301;-59
2021/05/06 08:51:35;;;;;;;9.00;7.30;;;9.60;99.90;;;;;;5110364;28;20358;-58
2021/05/06 08:54:00;;;;;;;10.27;6.83;;;9.70;99.90;;;;;;5117946;28;20331;-65
2021/05/06 08:56:27;;;;;;;10.03;6.53;;;9.90;99.90;;;;;;5110333;28;20605;-66
2021/05/06 08:58:53;;;;;;;10.63;8.17;;;10.20;99.90;;;;;;5110326;28;20092;-65
2021/05/06 09:01:19;;;;;;;12.07;8.77;;;10.50;99.90;;;;;;5109756;28;20348;-65
2021/05/06 09:03:44;;;;;;;9.77;8.77;;;10.70;99.90;;;;;;5110055;28;20340;-66
2021/05/06 09:06:13;;;;;;;10.77;8.73;;;10.80;99.90;;;;;;5110024;28;20051;-65
2021/05/06 09:08:41;;;;;;;9.03;7.20;;;10.90;99.90;;;;;;5110112;28;20163;-66
2021/05/06 09:11:08;;;;;;;7.70;6.90;;;11.10;99.90;;;;;;5109221;28;20297;-66
2021/05/06 09:13:34;;;;;;;8.00;7.03;;;11.10;99.90;;;;;;5108706;28;20598;-67
2021/05/06 09:16:00;;;;;;;9.90;7.80;;;10.90;98.50;;;;;;5109644;28;20301;-67
2021/05/06 09:18:52;;;;;;;12.93;8.23;;;10.70;99.70;;;;;;5111431;28;20300;-66
2021/05/06 09:21:24;;;;;;;12.47;8.63;;;10.90;99.90;;;;;;5105212;28;20333;-60
2021/05/06 09:24:08;;;;;;;9.53;7.90;;;11.00;99.90;;;;;;5109805;28;20285;-60
2021/05/06 09:26:34;;;;;;;10.77;8.07;;;10.80;99.80;;;;;;5109664;28;20768;-60
2021/05/06 09:29:03;;;;;;;9.27;7.80;;;10.80;99.90;;;;;;5109424;28;20043;-63
2021/05/06 09:31:33;;;;;;;13.07;9.80;;;10.70;99.90;;;;;;5108526;28;20297;-67
2021/05/06 09:33:58;;;;;;;12.73;9.20;;;10.50;99.90;;;;;;5109571;28;20300;-69
2021/05/06 09:36:26;;;;;;;12.97;9.83;;;10.30;99.90;;;;;;5109400;28;20381;-67
2021/05/06 09:38:54;;;;;;;11.03;9.33;;;10.40;99.90;;;;;;5109557;28;20466;-67
2021/05/06 09:41:32;;;;;;;10.60;9.50;;;10.40;99.90;;;;;;5091088;28;20709;-66
2021/05/06 09:44:13;;;;;;;12.77;10.00;;;10.40;99.90;;;;;;5109338;28;20293;-69
2021/05/06 09:46:55;;;;;;;14.27;9.40;;;10.50;99.90;;;;;;5109604;28;20740;-68
2021/05/06 09:49:22;;;;;;;11.47;8.47;;;10.40;99.30;;;;;;5109964;28;20309;-69
2021/05/06 09:51:52;;;;;;;9.00;7.73;;;10.50;99.40;;;;;;5108917;28;20633;-67
2021/05/06 09:54:23;;;;;;;9.40;7.83;;;10.60;97.90;;;;;;5108918;28;21042;-69
2021/05/06 09:57:00;;;;;;;11.23;8.30;;;10.90;96.20;;;;;;5109264;28;20301;-68
2021/05/06 09:59:28;;;;;;;10.33;9.20;;;11.10;95.60;;;;;;5118276;28;20273;-60
2021/05/06 10:02:05;;;;;;;7.53;6.10;;;11.40;96.90;;;;;;5119970;28;20335;-67
2021/05/06 10:04:31;;;;;;;7.90;3.73;;;11.50;93.40;;;;;;5108822;28;20297;-67
2021/05/06 10:07:07;;;;;;;4.73;4.23;;;11.40;90.10;;;;;;5107970;28;20301;-66
2021/05/06 10:09:34;;;;;;;4.63;4.20;;;11.20;89.10;;;;;;5108212;28;20051;-64
2021/05/06 10:12:00;;;;;;;5.33;4.50;;;10.90;93.80;;;;;;5109170;28;20297;-65
2021/05/06 10:14:26;;;;;;;7.60;5.10;;;10.80;95.80;;;;;;5108081;28;20698;-65
2021/05/06 10:16:52;;;;;;;6.27;4.93;;;10.50;98.20;;;;;;5108100;28;20301;-64
2021/05/06 10:19:18;;;;;;;6.80;5.60;;;10.20;99.90;;;;;;5108665;28;20047;-65
2021/05/06 10:21:46;;;;;;;7.80;7.00;;;10.10;99.90;;;;;;5090242;28;20050;-65
2021/05/06 10:24:15;;;;;;;10.00;7.47;;;10.20;99.90;;;;;;5108601;28;20293;-66
2021/05/06 10:26:41;;;;;;;8.10;7.30;;;10.10;99.90;;;;;;5108447;28;20722;-66
2021/05/06 10:29:07;;;;;;;10.20;8.83;;;9.90;99.90;;;;;;5108580;28;20348;-66
2021/05/06 10:31:39;;;;;;;11.93;7.63;;;10.10;99.90;;;;;;5090525;28;20047;-65
2021/05/06 10:34:07;;;;;;;12.70;9.13;;;10.60;99.90;;;;;;5108463;28;20428;-65
2021/05/06 10:36:34;;;;;;;9.63;8.63;;;10.50;99.90;;;;;;5108803;28;20855;-66
2021/05/06 10:39:01;;;;;;;9.23;8.33;;;10.70;99.90;;;;;;5107592;28;20388;-65
2021/05/06 10:41:29;;;;;;;10.80;8.57;;;10.70;99.90;;;;;;5109006;28;20420;-65
2021/05/06 10:44:00;;;;;;;9.13;8.00;;;10.60;99.90;;;;;;5109060;28;20297;-66
2021/05/06 10:47:01;;;;;;;10.10;8.50;;;10.40;99.90;;;;;;5108937;28;20410;-65
2021/05/06 10:49:29;;;;;;;9.53;8.47;;;10.40;97.30;;;;;;5108951;28;20316;-65
2021/05/06 10:52:01;;;;;;;11.53;9.27;;;10.50;99.90;;;;;;5109424;28;20293;-66
2021/05/06 10:54:30;;;;;;;11.13;8.57;;;10.50;99.90;;;;;;5109231;28;20296;-70
2021/05/06 10:56:58;;;;;;;6.70;6.00;;;10.60;99.90;;;;;;5109162;28;20408;-67
2021/05/06 10:59:39;;;;;;;6.07;5.40;;;10.60;96.90;;;;;;5108834;28;20339;-69
2021/05/06 11:02:05;;;;;;;6.07;5.07;;;10.60;93.70;;;;;;5108569;28;20808;-67
2021/05/06 11:04:37;;;;;;;6.53;5.30;;;10.70;96.50;;;;;;5108730;28;20729;-69
2021/05/06 11:07:15;;;;;;;10.00;7.20;;;10.70;94.50;;;;;;5090315;28;20909;-70
2021/05/06 11:09:43;;;;;;;6.50;4.83;;;10.90;96.70;;;;;;5108700;28;20316;-67
2021/05/06 11:12:23;;;;;;;5.67;4.77;;;10.40;96.30;;;;;;5107189;28;20297;-67
2021/05/06 11:15:01;;;;;;;5.90;4.83;;;10.40;99.90;;;;;;5107075;28;20495;-68
2021/05/06 11:17:41;;;;;;;7.07;5.30;;;10.20;99.90;;;;;;5107750;28;20301;-67
2021/05/06 11:20:10;;;;;;;8.67;6.53;;;10.10;99.90;;;;;;5112251;28;20752;-68
2021/05/06 11:22:42;;;;;;;10.17;6.70;;;9.90;99.90;;;;;;5112398;28;20403;-66
2021/05/06 11:25:29;;;;;;;7.90;7.10;;;9.90;99.90;;;;;;5110980;28;20380;-65
2021/05/06 11:27:59;;;;;;;10.10;6.93;;;9.90;99.90;;;;;;5112030;28;20352;-69
2021/05/06 11:30:43;;;;;;;8.90;7.30;;;9.90;99.90;;;;;;5112523;28;20300;-71
2021/05/06 11:33:18;;;;;;;;;;;10.30;99.90;;;;;;5112772;28;20304;-69
2021/05/06 11:36:11;;;;;;;9.63;7.63;;;10.60;99.90;;;;;;5093804;28;20442;-68
2021/05/06 11:38:41;;;;;;;7.00;6.30;;;10.90;98.90;;;;;;5112214;28;20059;-67
2021/05/06 11:41:20;;;;;;;7.00;5.37;;;11.10;99.40;;;;;;5111904;28;20378;-67
2021/05/06 11:43:58;;;;;;;7.67;5.30;;;11.40;94.30;;;;;;5112183;28;20293;-68
2021/05/06 11:46:27;;;;;;;5.60;5.00;;;11.80;93.00;;;;;;5111762;28;20859;-67
2021/05/06 11:49:03;;;;;;;5.93;4.67;;;12.00;87.10;;;;;;5111719;28;20610;-67
2021/05/06 11:51:44;;;;;;;5.50;4.77;;;12.00;89.60;;;;;;5111773;28;20375;-69
2021/05/06 11:54:15;;;;;;;5.10;4.60;;;12.10;85.40;;;;;;5111324;28;20333;-67
2021/05/06 11:56:43;;;;;;;5.93;4.80;;;12.20;78.40;;;;;;5111790;28;20380;-70
2021/05/06 11:59:17;;;;;;;4.53;3.97;;;12.20;80.40;;;;;;5112002;28;20411;-71
2021/05/06 12:01:44;;;;;;;5.22;3.90;;;12.40;75.50;;;;;;5111097;28;20398;-69
2021/05/06 12:04:32;;;;;;;3.80;3.50;;;12.40;76.10;;;;;;5111726;28;20055;-69
2021/05/06 12:07:16;;;;;;;4.50;3.97;;;12.50;73.30;;;;;;5111421;28;20285;-67
2021/05/06 12:09:42;;;;;;;7.13;4.78;;;12.60;74.10;;;;;;5111576;28;20313;-69
2021/05/06 12:12:08;;;;;;;5.30;4.80;;;12.60;79.60;;;;;;5111458;28;20050;-66
2021/05/06 12:14:36;;;;;;;5.57;4.60;;;12.90;82.30;;;;;;5093321;28;20297;-71
2021/05/06 12:17:03;;;;;;;4.97;4.47;;;13.00;77.80;;;;;;5111307;28;20051;-68
2021/05/06 12:19:29;;;;;;;5.47;4.80;;;12.90;78.20;;;;;;5111424;28;20825;-71
2021/05/06 12:21:58;;;;;;;7.20;4.10;;;12.90;75.50;;;;;;5111445;28;20369;-67
2021/05/06 12:24:31;;;;;;;4.33;3.73;;;13.00;78.20;;;;;;5111433;28;20297;-71
2021/05/06 12:26:59;;;;;;;5.47;3.90;;;13.00;76.60;;;;;;5111042;28;20641;-71
2021/05/06 12:29:28;;;;;;;4.37;3.50;;;12.90;76.90;;;;;;5110521;28;20301;-69
2021/05/06 12:31:54;;;;;;;3.60;3.30;;;12.60;76.80;;;;;;5111530;28;20301;-71
2021/05/06 12:34:22;;;;;;;4.07;3.67;;;12.80;76.80;;;;;;5110950;28;20396;-69
2021/05/06 12:36:49;;;;;;;2.90;2.60;;;12.70;71.20;;;;;;5092471;28;20289;-70
2021/05/06 12:39:16;;;;;;;3.27;2.53;;;12.90;69.30;;;;;;5110805;28;20289;-69
2021/05/06 12:41:59;;;;;;;3.10;2.80;;;13.00;66.00;;;;;;5110972;28;20288;-70
2021/05/06 12:44:48;;;;;;;3.90;3.10;;;13.10;68.60;;;;;;5110648;28;20294;-66
2021/05/06 12:47:16;;;;;;;4.97;3.90;;;13.20;73.00;;;;;;5110657;28;20850;-69
2021/05/06 12:49:43;;;;;;;4.33;3.93;;;12.80;78.20;;;;;;5110620;28;20341;-66
2021/05/06 12:52:34;;;;;;;4.47;4.10;;;12.50;81.70;;;;;;5110410;28;20783;-69
2021/05/06 12:55:02;;;;;;;5.40;4.73;;;12.50;83.30;;;;;;5110149;28;20446;-69
2021/05/06 12:57:28;;;;;;;5.37;4.40;;;12.20;86.10;;;;;;5110822;28;20297;-66
2021/05/06 12:59:54;;;;;;;4.37;3.97;;;12.30;87.90;;;;;;5092322;28;20691;-69
2021/05/06 13:02:20;;;;;;;4.93;4.47;;;12.10;90.00;;;;;;5111695;28;20396;-66
2021/05/06 13:04:52;;;;;;;6.53;4.70;;;11.70;90.70;;;;;;5110643;28;20036;-65
2021/05/06 13:07:19;;;;;;;7.73;5.50;;;11.90;92.20;;;;;;5110363;28;20329;-65
2021/05/06 13:09:50;;;;;;;5.93;5.33;;;11.60;93.40;;;;;;5110264;28;20325;-67
2021/05/06 13:12:23;;;;;;;6.80;5.27;;;12.10;93.20;;;;;;5110015;28;20826;-66
2021/05/06 13:15:03;;;;;;;5.30;4.80;;;12.10;92.60;;;;;;5110233;28;20372;-65
2021/05/06 13:17:33;;;;;;;5.17;4.50;;;12.00;91.60;;;;;;5110654;28;20301;-64
2021/05/06 13:20:13;;;;;;;5.93;4.30;;;11.80;93.40;;;;;;5110020;28;20304;-66
2021/05/06 13:22:39;;;;;;;5.20;4.70;;;11.70;93.60;;;;;;5111348;28;20323;-67
2021/05/06 13:25:06;;;;;;;6.83;4.63;;;11.50;94.30;;;;;;5111224;28;20294;-67
2021/05/06 13:27:32;;;;;;;6.77;4.57;;;11.60;93.70;;;;;;5110336;28;20048;-65
2021/05/06 13:30:05;;;;;;;4.40;4.00;;;11.80;91.70;;;;;;5111498;28;20305;-66
2021/05/06 13:32:42;;;;;;;4.50;4.10;;;11.90;91.70;;;;;;5109720;28;20446;-67
2021/05/06 13:35:15;;;;;;;4.47;4.03;;;12.10;89.20;;;;;;5115704;28;20047;-63
2021/05/06 13:37:44;;;;;;;4.88;4.15;;;12.30;88.40;;;;;;5119158;28;20285;-64
2021/05/06 13:40:11;;;;;;;3.80;3.50;;;12.50;81.40;;;;;;5115075;28;20107;-66
2021/05/06 13:42:37;;;;;;;5.70;4.27;;;12.60;86.30;;;;;;5096620;28;20301;-64
2021/05/06 13:45:06;;;;;;;4.70;4.30;;;12.50;83.40;;;;;;5095996;28;20304;-65
2021/05/06 13:47:32;;;;;;;5.00;4.50;;;12.50;84.30;;;;;;5114701;28;20362;-65
2021/05/06 13:49:58;;;;;;;4.93;4.43;;;12.60;83.00;;;;;;5092484;28;20334;-67
2021/05/06 13:52:26;;;;;;;4.53;4.13;;;12.60;82.70;;;;;;5110780;28;20105;-64
2021/05/06 13:54:52;;;;;;;4.80;4.33;;;12.60;85.50;;;;;;5095719;28;20566;-60
2021/05/06 13:57:19;;;;;;;5.20;4.13;;;12.60;86.10;;;;;;5114096;28;20380;-61
2021/05/06 13:59:45;;;;;;;8.27;4.17;;;12.50;81.80;;;;;;5117105;28;20352;-61
2021/05/06 14:02:11;;;;;;;4.67;4.13;;;12.30;88.30;;;;;;5126253;28;20343;-61
2021/05/06 14:04:36;;;;;;;4.77;4.37;;;12.40;88.10;;;;;;5129235;28;20289;-63
2021/05/06 14:07:02;;;;;;;4.87;4.47;;;12.10;90.00;;;;;;5126435;28;20043;-58
2021/05/06 14:09:28;;;;;;;5.10;4.60;;;12.10;88.40;;;;;;5125471;28;20083;-61
2021/05/06 14:11:53;;;;;;;9.27;4.53;;;12.00;90.10;;;;;;5124042;28;20047;-61
2021/05/06 14:14:20;;;;;;;4.93;4.50;;;12.00;90.60;;;;;;5130345;27;20031;-61
2021/05/06 14:16:46;;;;;;;4.90;4.50;;;11.80;90.70;;;;;;5132089;27;20066;-62
2021/05/06 14:19:13;;;;;;;4.47;4.10;;;11.70;90.80;;;;;;5132692;27;20285;-62
2021/05/06 14:21:41;;;;;;;4.50;4.10;;;11.60;90.60;;;;;;5132923;27;20352;-63
2021/05/06 14:24:09;;;;;;;5.27;4.20;;;11.60;89.30;;;;;;5131060;28;20297;-63
2021/05/06 14:26:35;;;;;;;4.83;4.43;;;11.60;88.30;;;;;;5126653;28;20297;-64
2021/05/06 14:29:02;;;;;;;4.77;4.37;;;11.60;87.80;;;;;;5127966;28;20325;-62
2021/05/06 14:31:28;;;;;;;5.47;4.97;;;11.60;88.30;;;;;;5127513;27;20399;-64
2021/05/06 14:33:53;;;;;;;5.00;4.50;;;11.50;88.70;;;;;;5126604;28;20298;-61
2021/05/06 14:36:19;;;;;;;5.00;4.50;;;11.60;88.80;;;;;;5117982;27;20103;-65
2021/05/06 14:38:45;;;;;;;5.30;4.80;;;11.60;87.10;;;;;;5106406;28;20072;-67
2021/05/06 14:41:11;;;;;;;5.53;5.00;;;11.70;86.70;;;;;;5106685;28;20066;-66
2021/05/06 14:43:37;;;;;;;5.90;5.00;;;11.60;87.00;;;;;;5106604;28;20479;-66
2021/05/06 14:46:04;;;;;;;5.53;4.90;;;11.70;85.90;;;;;;5106977;28;20286;-67
2021/05/06 14:48:31;;;;;;;5.50;5.00;;;11.70;85.50;;;;;;5106532;28;20792;-66
2021/05/06 14:50:58;;;;;;;5.90;5.30;;;11.90;85.10;;;;;;5088934;28;20293;-67
2021/05/06 14:53:24;;;;;;;6.27;5.17;;;12.00;84.20;;;;;;5110673;28;20331;-65
2021/05/06 14:55:51;;;;;;;5.60;4.87;;;12.10;82.60;;;;;;5111338;28;20325;-67
2021/05/06 14:58:16;;;;;;;5.80;4.57;;;12.20;83.70;;;;;;5111537;28;20044;-66
2021/05/06 15:00:42;;;;;;;5.00;4.50;;;12.30;84.50;;;;;;5111509;28;20297;-67
2021/05/06 15:03:08;;;;;;;7.43;4.47;;;12.20;83.70;;;;;;5110535;28;20083;-66
2021/05/06 15:05:34;;;;;;;4.93;4.53;;;12.30;83.20;;;;;;5111275;28;20051;-66
2021/05/06 15:08:03;;;;;;;5.80;4.50;;;12.10;84.10;;;;;;5111790;28;20410;-67
2021/05/06 15:10:29;;;;;;;5.50;4.80;;;12.10;85.20;;;;;;5110745;28;20293;-64
2021/05/06 15:12:55;;;;;;;5.77;4.00;;;12.30;85.70;;;;;;5113610;28;20320;-64
2021/05/06 15:15:21;;;;;;;4.57;4.13;;;12.20;85.80;;;;;;5117936;28;20918;-62
2021/05/06 15:17:50;;;;;;;5.63;3.83;;;12.30;86.00;;;;;;5125341;28;20519;-63
2021/05/06 15:20:16;;;;;;;4.37;3.83;;;12.30;87.60;;;;;;5125510;27;20020;-64
2021/05/06 15:22:42;;;;;;;5.37;4.00;;;12.30;87.00;;;;;;5134612;28;20300;-63
2021/05/06 15:25:11;;;;;;;6.77;4.13;;;12.30;89.60;;;;;;5132213;28;20052;-64
2021/05/06 15:27:40;;;;;;;4.90;4.17;;;12.40;89.10;;;;;;5133533;28;20080;-65
2021/05/06 15:30:07;;;;;;;5.37;4.10;;;12.40;88.80;;;;;;5114690;28;20313;-60
2021/05/06 15:32:33;;;;;;;5.70;5.00;;;12.40;87.60;;;;;;5113278;28;20285;-61
2021/05/06 15:35:00;;;;;;;6.00;5.40;;;12.20;89.10;;;;;;5112115;28;20836;-60
2021/05/06 15:37:27;;;;;;;4.80;4.40;;;12.20;90.50;;;;;;5112196;28;20490;-61
2021/05/06 15:39:53;;;;;;;5.97;4.67;;;12.10;91.30;;;;;;5112638;28;20297;-59
2021/05/06 15:42:18;;;;;;;5.00;4.50;;;12.00;91.20;;;;;;5112197;28;20639;-60
2021/05/06 15:44:44;;;;;;;5.27;4.70;;;11.90;92.00;;;;;;5112075;28;20152;-59
2021/05/06 15:47:10;;;;;;;5.60;5.03;;;11.70;93.00;;;;;;5111590;28;20364;-60
2021/05/06 15:49:42;;;;;;;5.60;4.83;;;11.60;94.10;;;;;;5111870;28;20336;-61
2021/05/06 15:52:12;;;;;;;5.20;4.70;;;11.60;93.70;;;;;;5111584;28;20043;-61
2021/05/06 15:54:38;;;;;;;8.60;4.70;;;11.60;94.00;;;;;;5111258;28;20300;-61
2021/05/06 15:57:05;;;;;;;4.67;4.30;;;11.80;93.80;;;;;;5111955;28;20297;-60
2021/05/06 15:59:32;;;;;;;6.37;4.70;;;12.00;93.30;;;;;;5112929;28;20301;-65
2021/05/06 16:01:58;;;;;;;6.67;4.90;;;11.90;93.00;;;;;;5111671;28;20379;-65
2021/05/06 16:04:30;;;;;;;4.50;4.10;;;11.90;93.30;;;;;;5110900;28;20297;-67
2021/05/06 16:06:56;;;;;;;4.30;3.90;;;11.90;92.20;;;;;;5111919;28;20298;-67
2021/05/06 16:09:21;;;;;;;4.77;4.00;;;11.90;91.50;;;;;;5111799;28;20309;-68
2021/05/06 16:11:47;;;;;;;5.33;4.10;;;12.00;90.80;;;;;;5111401;28;20122;-65
2021/05/06 16:14:13;;;;;;;4.30;3.90;;;11.80;90.40;;;;;;5111709;28;20059;-67
2021/05/06 16:16:40;;;;;;;5.30;4.80;;;11.80;91.50;;;;;;5111746;28;20082;-66
2021/05/06 16:19:08;;;;;;;5.77;5.20;;;11.70;92.50;;;;;;5111560;28;20380;-67
2021/05/06 16:21:35;;;;;;;5.10;4.60;;;11.60;93.20;;;;;;5093190;28;20765;-66
2021/05/06 16:24:02;;;;;;;5.00;4.60;;;11.40;93.10;;;;;;5093118;28;20305;-67
2021/05/06 16:26:28;;;;;;;6.40;4.60;;;11.40;93.50;;;;;;5111556;28;20681;-68